Bookmark and Share
Track history (hours):
 

Saga Sapphire

Last reported at 2014-Apr-18 19:00 UTC. Time now 2014-Apr-20 16:05 UTC.
Position N 41°18' E 017°42'.

Length 200 m; draft 8.4 m.

Type: Passenger vessel. MMSI: 256208000.

Wind from 040 at 6 knots

Barometer 1004.8 mb
Air temperature 13.9 ° C
Visibility: greater than 10.8 NM
Dewpoint 9.8 ° C

NotesDate/timePositionNaut miles runAvg speedWind from/ knotsBaromVisibWave heightAir tempDewpointWater temp
2014-Apr-18 19:00N 41°18' E 017°42'361 8.4 040 / 61004.810.8 13.9 9.8
2014-Apr-17 00:15N 36°46' E 012°38'1716.7
2014-Apr-16 23:15N 36°53' E 012°19'1316.9
2014-Apr-16 22:29N 36°59' E 012°05'1616.8
2014-Apr-16 21:33N 37°07' E 011°48'1716.6
2014-Apr-16 20:32N 37°15' E 011°29'86 5.2
2014-Apr-16 04:00N 37°24' E 009°42'10515.0 350 / 91014.910.8 15.510.8
2014-Apr-15 21:00N 37°18' E 007°30'8315.0 310 / 161015.510.8 0.517.015.1
2014-Apr-15 15:29N 37°16' E 005°46'8213.8
2014-Apr-15 09:33N 37°04' E 004°04'1716.0
2014-Apr-15 08:29N 37°03' E 003°43'1516.6
2014-Apr-15 07:34N 37°01' E 003°24'6424.8
2014-Apr-15 05:00N 36°48' E 002°06'14616.2 070 / 121014.2 5.4 16.014.818.0
2014-Apr-14 20:00N 36°30' W 000°54'176 7.3 040 / 181015.710.8 1.516.914.8
2014-Apr-13 20:00N 36°06' W 004°30'3213.2 090 / 201016.910.8 1.516.813.6
2014-Apr-13 17:33N 36°01' W 005°09'1414.3
2014-Apr-13 16:33N 35°57' W 005°26'1914.6
2014-Apr-13 15:14N 35°54' W 005°50'10413.3
2014-Apr-13 07:28N 36°16' W 007°55'1213.7
2014-Apr-13 06:34N 36°19' W 008°10'1814.5
2014-Apr-13 05:18N 36°24' W 008°32'1414.5
2014-Apr-13 04:21N 36°27' W 008°48'4114.2
2014-Apr-13 01:29N 36°48' W 009°32'1415.1
2014-Apr-13 00:33N 37°02' W 009°33'1515.3
2014-Apr-12 23:33N 37°17' W 009°28'1515.3
2014-Apr-12 22:33N 37°32' W 009°23'1515.1
2014-Apr-12 21:34N 37°46' W 009°19'1615.5
2014-Apr-12 20:33N 38°02' W 009°21'1615.7
2014-Apr-12 19:33N 38°18' W 009°22'1515.4
2014-Apr-12 18:33N 38°33' W 009°23'1312.7
2014-Apr-12 17:33N 38°41' W 009°11'3 1.9
2014-Apr-12 16:05N 38°42' W 009°08'0 0.0
2014-Apr-12 11:32N 38°42' W 009°08'0 0.0
2014-Apr-12 10:32N 38°42' W 009°08'5 4.7
2014-Apr-12 09:34N 38°41' W 009°13'1211.0
2014-Apr-12 08:28N 38°37' W 009°28'46012.6
2014-Apr-10 20:00N 46°12' W 007°54'13513.5 040 / 161022.710.8 0.511.8 8.8
2014-Apr-10 10:00N 48°12' W 006°24'21614.9 040 / 101025.210.8 0.513.8 7.7
2014-Apr-09 19:29N 50°27' W 002°04'1414.9
2014-Apr-09 18:33N 50°35' W 001°46'1414.1
2014-Apr-09 17:34N 50°43' W 001°29'9 9.1
2014-Apr-09 16:33N 50°50' W 001°19'5 5.1
2014-Apr-09 15:31N 50°54' W 001°25'0 0.0
2014-Apr-09 14:31N 50°54' W 001°25'0 0.0
2014-Apr-09 13:31N 50°54' W 001°25'0 0.0
2014-Apr-09 12:28N 50°54' W 001°25'0 0.0
2014-Apr-09 11:31N 50°54' W 001°25'0 0.0
2014-Apr-09 10:31N 50°54' W 001°25'0 0.0
2014-Apr-09 09:31N 50°54' W 001°25'0 0.0
2014-Apr-09 08:31N 50°54' W 001°25'0 0.0
2014-Apr-09 07:31N 50°54' W 001°25'0 0.2
2014-Apr-09 06:33N 50°54' W 001°25'7 7.3
2014-Apr-09 05:34N 50°48' W 001°18'1110.9
2014-Apr-09 04:33N 50°42' W 001°33'1211.8
2014-Apr-09 03:33N 50°35' W 001°47'1313.2
2014-Apr-09 02:33N 50°27' W 002°04'  

Dump ship's entire track history

sailing weather and tide predictions

Saga Sapphire — 9HOF8 — position and weather